Date,TemperatureHighF,TemperatureAvgF,TemperatureLowF,DewpointHighF,DewpointAvgF,DewpointLowF,HumidityHigh,HumidityAvg,HumidityLow,PressureMaxIn,PressureMinIn,WindSpeedMaxMPH,WindSpeedAvgMPH,GustSpeedMaxMPH,PrecipitationSumIn
2013-1-1,30,26,16,-100,-100,-100,0,0,100,0.00,40.00,0,-999,0,0.00
2013-1-2,23,16,10,-100,-100,-100,0,0,100,0.00,40.00,0,-999,0,0.00
2013-1-3,18,12,3,-100,-100,-100,0,0,100,0.00,40.00,0,-999,0,0.00
2013-1-4,33,25,16,-100,-100,-100,0,0,100,0.00,40.00,0,-999,0,0.00
2013-1-5,35,30,22,-100,-100,-100,0,0,100,0.00,40.00,0,-999,0,0.00
2013-1-6,34,29,23,-100,-100,-100,0,0,100,0.00,40.00,0,-999,0,0.00
2013-1-7,33,29,19,-100,-100,-100,0,0,100,0.00,40.00,0,-999,0,0.00
2013-1-8,37,28,18,-100,-100,-100,0,0,100,0.00,40.00,0,-999,0,0.00
2013-1-9,37,31,22,-100,-100,-100,0,0,100,0.00,40.00,0,-999,0,0.00
2013-1-10,39,35,30,-100,-100,-100,0,0,100,0.00,40.00,0,-999,0,0.00
2013-1-11,34,31,26,-100,-100,-100,0,0,100,0.00,40.00,0,-999,0,0.00
2013-1-12,40,36,34,-100,-100,-100,0,0,100,0.00,40.00,0,-999,0,0.00
2013-1-13,44,39,36,-100,-100,-100,0,0,100,0.00,40.00,0,-999,0,0.00
2013-1-14,49,41,34,-100,-100,-100,0,0,100,0.00,40.00,0,-999,0,0.00
2013-1-15,37,32,28,-100,-100,-100,0,0,100,0.00,40.00,0,-999,0,0.00
2013-1-16,32,30,28,-100,-100,-100,0,0,100,0.00,40.00,0,-999,0,0.00
2013-1-17,36,30,24,-100,-100,-100,0,0,100,0.00,40.00,0,-999,0,0.00
2013-1-18,25,18,13,-100,-100,-100,0,0,100,0.00,40.00,0,-999,0,0.00
2013-1-19,38,30,15,-100,-100,-100,0,0,100,0.00,40.00,0,-999,0,0.00
2013-1-20,41,33,23,-100,-100,-100,0,0,100,0.00,40.00,0,-999,0,0.00
2013-1-21,24,20,15,-100,-100,-100,0,0,100,0.00,40.00,0,-999,0,0.00
2013-1-22,20,16,9,-100,-100,-100,0,0,100,0.00,40.00,0,-999,0,0.00
2013-1-23,12,6,2,-100,-100,-100,0,0,100,0.00,40.00,0,-999,0,0.00
2013-1-24,13,6,-2,-100,-100,-100,0,0,100,0.00,40.00,0,-999,0,0.00
2013-1-25,18,10,3,-100,-100,-100,0,0,100,0.00,40.00,0,-999,0,0.00
2013-1-26,19,13,7,-100,-100,-100,0,0,100,0.00,40.00,0,-999,0,0.00
2013-1-27,24,15,8,-100,-100,-100,0,0,100,0.00,40.00,0,-999,0,0.00
2013-1-28,25,20,14,-100,-100,-100,0,0,100,0.00,40.00,0,-999,0,0.00
2013-1-29,34,28,22,-100,-100,-100,0,0,100,0.00,40.00,0,-999,0,0.00
2013-1-30,53,43,32,-100,-100,-100,0,0,100,0.00,40.00,0,-999,0,0.00
2013-1-31,56,40,25,-100,-100,-100,0,0,100,0.00,40.00,0,-999,0,0.00
2013-2-1,30,23,17,-100,-100,-100,0,0,100,0.00,40.00,0,-999,0,0.00
2013-2-2,27,20,12,-100,-100,-100,0,0,100,0.00,40.00,0,-999,0,0.00
2013-2-3,30,24,18,-100,-100,-100,0,0,100,0.00,40.00,0,-999,0,0.00
2013-2-4,25,20,15,-100,-100,-100,0,0,100,0.00,40.00,0,-999,0,0.00
2013-2-5,28,21,14,-100,-100,-100,0,0,100,0.00,40.00,0,-999,0,0.00
2013-2-6,33,25,19,-100,-100,-100,0,0,100,0.00,40.00,0,-999,0,0.00
2013-2-7,28,21,12,-100,-100,-100,0,0,100,0.00,40.00,0,-999,0,0.00
2013-2-8,24,20,14,-100,-100,-100,0,0,100,0.00,40.00,0,-999,0,0.00
2013-2-9,20,15,11,-100,-100,-100,0,0,100,0.00,40.00,0,-999,0,0.00
2013-2-10,32,21,10,-100,-100,-100,0,0,100,0.00,40.00,0,-999,0,0.00
2013-2-11,38,29,17,-100,-100,-100,0,0,100,0.00,40.00,0,-999,0,0.00
2013-2-12,36,34,31,-100,-100,-100,0,0,100,0.00,40.00,0,-999,0,0.00
2013-2-13,38,32,29,-100,-100,-100,0,0,100,0.00,40.00,0,-999,0,0.00
2013-2-14,39,31,24,-100,-100,-100,0,0,100,0.00,40.00,0,-999,0,0.00
2013-2-15,44,33,24,-100,-100,-100,0,0,100,0.00,40.00,0,-999,0,0.00
2013-2-16,38,32,24,-100,-100,-100,0,0,100,0.00,40.00,0,-999,0,0.00
2013-2-17,24,18,12,-100,-100,-100,0,0,100,0.00,40.00,0,-999,0,0.00
2013-2-18,26,17,8,-100,-100,-100,0,0,100,0.00,40.00,0,-999,0,0.00
2013-2-19,41,30,16,-100,-100,-100,0,0,100,0.00,40.00,0,-999,0,0.00
2013-2-20,35,28,21,-100,-100,-100,0,0,100,0.00,40.00,0,-999,0,0.00
2013-2-21,31,23,18,-100,-100,-100,0,0,100,0.00,40.00,0,-999,0,0.00
2013-2-22,39,28,17,-100,-100,-100,0,0,100,0.00,40.00,0,-999,0,0.00
2013-2-23,33,31,29,-100,-100,-100,0,0,100,0.00,40.00,0,-999,0,0.00
2013-2-24,36,33,31,-100,-100,-100,0,0,100,0.00,40.00,0,-999,0,0.00
2013-2-25,38,33,28,-100,-100,-100,0,0,100,0.00,40.00,0,-999,0,0.00
2013-2-26,40,34,30,-100,-100,-100,0,0,100,0.00,40.00,0,-999,0,0.00
2013-2-27,36,33,31,-100,-100,-100,0,0,100,0.00,40.00,0,-999,0,0.00
2013-2-28,40,34,31,-100,-100,-100,0,0,100,0.00,40.00,0,-999,0,0.00
2013-3-1,38,34,31,-100,-100,-100,0,0,100,0.00,40.00,0,-999,0,0.00
2013-3-2,37,33,29,-100,-100,-100,0,0,100,0.00,40.00,0,-999,0,0.00
2013-3-3,38,32,28,-100,-100,-100,0,0,100,0.00,40.00,0,-999,0,0.00
2013-3-4,36,30,25,-100,-100,-100,0,0,100,0.00,40.00,0,-999,0,0.00
2013-3-5,40,32,24,-100,-100,-100,0,0,100,0.00,40.00,0,-999,0,0.00
2013-3-6,34,33,30,-100,-100,-100,0,0,100,0.00,40.00,0,-999,0,0.00
2013-3-7,34,30,27,-100,-100,-100,0,0,100,0.00,40.00,0,-999,0,0.00
2013-3-8,37,32,28,-100,-100,-100,0,0,100,0.00,40.00,0,-999,0,0.00
2013-3-9,48,35,24,-100,-100,-100,0,0,100,0.00,40.00,0,-999,0,0.00
2013-3-10,44,35,25,-100,-100,-100,0,0,100,0.00,40.00,0,-999,0,0.00
2013-3-11,45,38,32,-100,-100,-100,0,0,100,0.00,40.00,0,-999,0,0.00
2013-3-12,47,43,39,-100,-100,-100,0,0,100,0.00,40.00,0,-999,0,0.00
2013-3-13,45,37,29,-100,-100,-100,0,0,100,0.00,40.00,0,-999,0,0.00
2013-3-14,33,27,19,-100,-100,-100,0,0,100,0.00,40.00,0,-999,0,0.00
2013-3-15,40,27,15,-100,-100,-100,0,0,100,0.00,40.00,0,-999,0,0.00
2013-3-16,38,30,22,-100,-100,-100,0,0,100,0.00,40.00,0,-999,0,0.00
2013-3-17,38,26,18,-100,-100,-100,0,0,100,0.00,40.00,0,-999,0,0.00
2013-3-18,41,26,11,-100,-100,-100,0,0,100,0.00,40.00,0,-999,0,0.00
2013-3-19,32,29,25,-100,-100,-100,0,0,100,0.00,40.00,0,-999,0,0.00
2013-3-20,34,28,22,-100,-100,-100,0,0,100,0.00,40.00,0,-999,0,0.00
2013-3-21,37,28,17,-100,-100,-100,0,0,100,0.00,40.00,0,-999,0,0.00
2013-3-22,39,29,20,-100,-100,-100,0,0,100,0.00,40.00,0,-999,0,0.00
2013-3-23,39,30,22,-100,-100,-100,0,0,100,0.00,40.00,0,-999,0,0.00
2013-3-24,44,34,29,-100,-100,-100,0,0,100,0.00,40.00,0,-999,0,0.00
2013-3-25,40,34,27,-100,-100,-100,0,0,100,0.00,40.00,0,-999,0,0.00
2013-3-26,45,36,31,-100,-100,-100,0,0,100,0.00,40.00,0,-999,0,0.00
2013-3-27,51,37,24,-100,-100,-100,0,0,100,0.00,40.00,0,-999,0,0.00
2013-3-28,48,38,34,-100,-100,-100,0,0,100,0.00,40.00,0,-999,0,0.00
2013-3-29,55,41,33,-100,-100,-100,0,0,100,0.00,40.00,0,-999,0,0.00
2013-3-30,55,41,32,-100,-100,-100,0,0,100,0.00,40.00,0,-999,0,0.00
2013-3-31,54,40,26,-100,-100,-100,0,0,100,0.00,40.00,0,-999,0,0.00
2013-4-1,55,40,29,-100,-100,-100,0,0,100,0.00,40.00,0,-999,0,0.00
2013-4-2,38,30,23,-100,-100,-100,0,0,100,0.00,40.00,0,-999,0,0.00
2013-4-3,44,32,23,-100,-100,-100,0,0,100,0.00,40.00,0,-999,0,0.00
2013-4-4,52,37,24,-100,-100,-100,0,0,100,0.00,40.00,0,-999,0,0.00
2013-4-5,60,43,33,-100,-100,-100,0,0,100,0.00,40.00,0,-999,0,0.00
2013-4-6,46,34,27,-100,-100,-100,0,0,100,0.00,40.00,0,-999,0,0.00
2013-4-7,52,39,26,-100,-100,-100,0,0,100,0.00,40.00,0,-999,0,0.00
2013-4-8,61,48,38,-100,-100,-100,0,0,100,0.00,40.00,0,-999,0,0.00
2013-4-9,62,52,42,-100,-100,-100,0,0,100,0.00,40.00,0,-999,0,0.00
2013-4-10,58,50,44,-100,-100,-100,0,0,100,0.00,40.00,0,-999,0,0.00
2013-4-11,49,42,36,-100,-100,-100,0,0,100,0.00,40.00,0,-999,0,0.00
2013-4-12,37,34,32,-100,-100,-100,0,0,100,0.00,40.00,0,-999,0,0.00
2013-4-13,47,39,32,-100,-100,-100,0,0,100,0.00,40.00,0,-999,0,0.00
2013-4-14,48,41,34,-100,-100,-100,0,0,100,0.00,40.00,0,-999,0,0.00
2013-4-15,58,44,30,-100,-100,-100,0,0,100,0.00,40.00,0,-999,0,0.00
2013-4-16,64,49,34,-100,-100,-100,0,0,100,0.00,40.00,0,-999,0,0.00
2013-4-17,64,52,43,-100,-100,-100,0,0,100,0.00,40.00,0,-999,0,0.00
2013-4-18,64,50,38,-100,-100,-100,0,0,100,0.00,40.00,0,-999,0,0.00
2013-4-19,70,60,50,-100,-100,-100,0,0,100,0.00,40.00,0,-999,0,0.00
2013-4-20,63,49,37,-100,-100,-100,0,0,100,0.00,40.00,0,-999,0,0.00
2013-4-21,50,40,31,-100,-100,-100,0,0,100,0.00,40.00,0,-999,0,0.00
2013-4-22,56,42,31,-100,-100,-100,0,0,100,0.00,40.00,0,-999,0,0.00
2013-4-23,39,37,35,-100,-100,-100,0,0,100,0.00,40.00,0,-999,0,0.00
2013-4-26,50,48,48,-100,-100,-100,0,0,100,0.00,40.00,0,-999,0,0.00
2013-4-27,64,52,39,-100,-100,-100,0,0,100,0.00,40.00,0,-999,0,0.00
2013-4-28,69,50,41,-100,-100,-100,0,0,100,0.00,40.00,0,-999,0,0.00
2013-4-29,70,56,46,-100,-100,-100,0,0,100,0.00,40.00,0,-999,0,0.00
2013-4-30,54,51,50,-100,-100,-100,0,0,100,0.00,40.00,0,-999,0,0.00
2013-5-9,64,60,58,-100,-100,-100,0,0,100,0.00,40.00,0,-999,0,0.00
2013-5-10,65,56,52,-100,-100,-100,0,0,100,0.00,40.00,0,-999,0,0.00
2013-5-24,58,49,46,-100,-100,-100,0,0,100,0.00,40.00,0,-999,0,0.00
2013-5-25,48,46,45,-100,-100,-100,0,0,100,0.00,40.00,0,-999,0,0.00
2013-5-29,66,64,62,-100,-100,-100,0,0,100,0.00,40.00,0,-999,0,0.00
2013-5-30,81,70,60,-100,-100,-100,0,0,100,0.00,40.00,0,-999,0,0.00
2013-5-31,90,76,63,-100,-100,-100,0,0,100,0.00,40.00,0,-999,0,0.00
2013-6-1,90,76,66,-100,-100,-100,0,0,100,0.00,40.00,0,-999,0,0.00
2013-6-2,86,74,67,-100,-100,-100,0,0,100,0.00,40.00,0,-999,0,0.00
2013-6-3,76,68,58,-100,-100,-100,0,0,100,0.00,40.00,0,-999,0,0.00
2013-6-4,70,59,49,-100,-100,-100,0,0,100,0.00,40.00,0,-999,0,0.00
2013-6-5,76,62,51,-100,-100,-100,0,0,100,0.00,40.00,0,-999,0,0.00
2013-6-6,73,62,55,-100,-100,-100,0,0,100,0.00,40.00,0,-999,0,0.00
2013-6-7,58,54,51,-100,-100,-100,0,0,100,0.00,40.00,0,-999,0,0.00
2013-6-8,72,60,50,-100,-100,-100,0,0,100,0.00,40.00,0,-999,0,0.00
2013-6-9,75,65,55,-100,-100,-100,0,0,100,0.00,40.00,0,-999,0,0.00
2013-6-10,70,62,56,-100,-100,-100,0,0,100,0.00,40.00,0,-999,0,0.00
2013-6-11,60,57,55,-100,-100,-100,0,0,100,0.00,40.00,0,-999,0,0.00
2013-6-12,64,58,55,-100,-100,-100,0,0,100,0.00,40.00,0,-999,0,0.00
2013-6-13,61,55,50,-100,-100,-100,0,0,100,0.00,40.00,0,-999,0,0.00
2013-6-14,71,58,50,-100,-100,-100,0,0,100,0.00,40.00,0,-999,0,0.00
2013-6-15,76,64,52,-100,-100,-100,0,0,100,0.00,40.00,0,-999,0,0.00
2013-6-16,72,63,54,-100,-100,-100,0,0,100,0.00,40.00,0,-999,0,0.00
2013-6-17,81,66,58,-100,-100,-100,0,0,100,0.00,40.00,0,-999,0,0.00
2013-6-18,66,60,56,-100,-100,-100,0,0,100,0.00,40.00,0,-999,0,0.00
2013-6-19,74,61,52,-100,-100,-100,0,0,100,0.00,40.00,0,-999,0,0.00
2013-6-20,78,64,51,-100,-100,-100,0,0,100,0.00,40.00,0,-999,0,0.00
2013-6-21,81,69,56,-100,-100,-100,0,0,100,0.00,40.00,0,-999,0,0.00
2013-6-22,84,71,61,-100,-100,-100,0,0,100,0.00,40.00,0,-999,0,0.00
2013-6-23,88,75,64,-100,-100,-100,0,0,100,0.00,40.00,0,-999,0,0.00
2013-6-24,92,78,69,-100,-100,-100,0,0,100,0.00,40.00,0,-999,0,0.00
2013-6-25,88,75,67,-100,-100,-100,0,0,100,0.00,40.00,0,-999,0,0.00
2013-6-26,76,73,67,-100,-100,-100,0,0,100,0.00,40.00,0,-999,0,0.00
2013-6-28,76,68,58,-100,-100,-100,0,0,100,0.00,40.00,0,-999,0,0.00
2013-6-29,79,72,68,-100,-100,-100,0,0,100,0.00,40.00,0,-999,0,0.00
2013-6-30,82,73,68,-100,-100,-100,0,0,100,0.00,40.00,0,-999,0,0.00
2013-7-1,74,72,70,-100,-100,-100,0,0,100,0.00,40.00,0,-999,0,0.00
2013-7-2,79,73,68,-100,-100,-100,0,0,100,0.00,40.00,0,-999,0,0.00
2013-7-3,83,74,66,-100,-100,-100,0,0,100,0.00,40.00,0,-999,0,0.00
2013-7-4,88,82,73,-100,-100,-100,0,0,100,0.00,40.00,0,-999,0,0.00
2013-7-5,91,81,73,-100,-100,-100,0,0,100,0.00,40.00,0,-999,0,0.00
2013-7-6,88,79,73,-100,-100,-100,0,0,100,0.00,40.00,0,-999,0,0.00
2013-7-7,90,80,70,-100,-100,-100,0,0,100,0.00,40.00,0,-999,0,0.00
2013-7-8,89,78,72,-100,-100,-100,0,0,100,0.00,40.00,0,-999,0,0.00
2013-7-10,81,73,67,-100,-100,-100,0,0,100,0.00,40.00,0,-999,0,0.00
2013-7-11,81,74,69,-100,-100,-100,0,0,100,0.00,40.00,0,-999,0,0.00
2013-7-12,80,70,64,-100,-100,-100,0,0,100,0.00,40.00,0,-999,0,0.00
2013-7-13,75,70,64,-100,-100,-100,0,0,100,0.00,40.00,0,-999,0,0.00
2013-7-14,88,77,70,-100,-100,-100,0,0,100,0.00,40.00,0,-999,0,0.00
2013-7-15,89,79,70,-100,-100,-100,0,0,100,0.00,40.00,0,-999,0,0.00
2013-7-16,91,79,70,-100,-100,-100,0,0,100,0.00,40.00,0,-999,0,0.00
2013-7-17,94,80,70,-100,-100,-100,0,0,100,0.00,40.00,0,-999,0,0.00
2013-7-18,94,82,74,-100,-100,-100,0,0,100,0.00,40.00,0,-999,0,0.00
2013-7-19,94,82,73,-100,-100,-100,0,0,100,0.00,40.00,0,-999,0,0.00
2013-7-20,87,79,71,-100,-100,-100,0,0,100,0.00,40.00,0,-999,0,0.00
2013-7-21,84,74,65,-100,-100,-100,0,0,100,0.00,40.00,0,-999,0,0.00
2013-7-22,83,74,66,-100,-100,-100,0,0,100,0.00,40.00,0,-999,0,0.00
2013-7-23,78,71,67,-100,-100,-100,0,0,100,0.00,40.00,0,-999,0,0.00
2013-7-24,82,72,62,-100,-100,-100,0,0,100,0.00,40.00,0,-999,0,0.00
2013-7-25,71,63,56,-100,-100,-100,0,0,100,0.00,40.00,0,-999,0,0.00
2013-7-26,71,64,61,-100,-100,-100,0,0,100,0.00,40.00,0,-999,0,0.00
2013-7-27,82,69,58,-100,-100,-100,0,0,100,0.00,40.00,0,-999,0,0.00
2013-7-28,82,71,62,-100,-100,-100,0,0,100,0.00,40.00,0,-999,0,0.00
2013-7-29,83,73,67,-100,-100,-100,0,0,100,0.00,40.00,0,-999,0,0.00
2013-7-30,81,69,60,-100,-100,-100,0,0,100,0.00,40.00,0,-999,0,0.00
2013-7-31,83,70,61,-100,-100,-100,0,0,100,0.00,40.00,0,-999,0,0.00
2013-8-1,77,68,61,-100,-100,-100,0,0,100,0.00,40.00,0,-999,0,0.00
2013-8-2,78,69,64,-100,-100,-100,0,0,100,0.00,40.00,0,-999,0,0.00
2013-8-3,76,68,61,-100,-100,-100,0,0,100,0.00,40.00,0,-999,0,0.00
2013-8-4,75,65,57,-100,-100,-100,0,0,100,0.00,40.00,0,-999,0,0.00
2013-8-5,72,62,55,-100,-100,-100,0,0,100,0.00,40.00,0,-999,0,0.00
2013-8-6,78,64,53,-100,-100,-100,0,0,100,0.00,40.00,0,-999,0,0.00
2013-8-7,81,67,58,-100,-100,-100,0,0,100,0.00,40.00,0,-999,0,0.00
2013-8-8,78,71,65,-100,-100,-100,0,0,100,0.00,40.00,0,-999,0,0.00
2013-8-9,73,71,69,-100,-100,-100,0,0,100,0.00,40.00,0,-999,0,0.00
2013-8-10,78,69,61,-100,-100,-100,0,0,100,0.00,40.00,0,-999,0,0.00
2013-8-11,79,65,55,-100,-100,-100,0,0,100,0.00,40.00,0,-999,0,0.00
2013-8-12,81,67,58,-100,-100,-100,0,0,100,0.00,40.00,0,-999,0,0.00
2013-8-13,69,66,63,-100,-100,-100,0,0,100,0.00,40.00,0,-999,0,0.00
2013-8-14,69,62,56,-100,-100,-100,0,0,100,0.00,40.00,0,-999,0,0.00
2013-8-15,74,62,52,-100,-100,-100,0,0,100,0.00,40.00,0,-999,0,0.00
2013-8-16,78,64,53,-100,-100,-100,0,0,100,0.00,40.00,0,-999,0,0.00
2013-8-17,78,66,55,-100,-100,-100,0,0,100,0.00,40.00,0,-999,0,0.00
2013-8-18,76,68,59,-100,-100,-100,0,0,100,0.00,40.00,0,-999,0,0.00
2013-8-19,79,69,60,-100,-100,-100,0,0,100,0.00,40.00,0,-999,0,0.00
2013-8-20,82,70,61,-100,-100,-100,0,0,100,0.00,40.00,0,-999,0,0.00
2013-8-21,86,72,62,-100,-100,-100,0,0,100,0.00,40.00,0,-999,0,0.00
2013-8-22,85,73,63,-100,-100,-100,0,0,100,0.00,40.00,0,-999,0,0.00
2013-8-23,80,70,62,-100,-100,-100,0,0,100,0.00,40.00,0,-999,0,0.00
2013-8-24,75,64,55,-100,-100,-100,0,0,100,0.00,40.00,0,-999,0,0.00
2013-8-25,81,67,54,-100,-100,-100,0,0,100,0.00,40.00,0,-999,0,0.00
2013-8-26,77,69,61,-100,-100,-100,0,0,100,0.00,40.00,0,-999,0,0.00
2013-8-27,80,73,67,-100,-100,-100,0,0,100,0.00,40.00,0,-999,0,0.00
2013-8-28,81,72,66,-100,-100,-100,0,0,100,0.00,40.00,0,-999,0,0.00
2013-8-29,69,64,61,-100,-100,-100,0,0,100,0.00,40.00,0,-999,0,0.00
2013-8-30,78,68,60,-100,-100,-100,0,0,100,0.00,40.00,0,-999,0,0.00
2013-8-31,76,71,67,-100,-100,-100,0,0,100,0.00,40.00,0,-999,0,0.00
2013-9-1,78,72,67,-100,-100,-100,0,0,100,0.00,40.00,0,-999,0,0.00
2013-9-2,76,72,68,-100,-100,-100,0,0,100,0.00,40.00,0,-999,0,0.00
2013-9-3,74,68,61,-100,-100,-100,0,0,100,0.00,40.00,0,-999,0,0.00
2013-9-4,77,65,57,-100,-100,-100,0,0,100,0.00,40.00,0,-999,0,0.00
2013-9-5,68,61,52,-100,-100,-100,0,0,100,0.00,40.00,0,-999,0,0.00
2013-9-6,69,55,46,-100,-100,-100,0,0,100,0.00,40.00,0,-999,0,0.00
2013-9-7,74,61,49,-100,-100,-100,0,0,100,0.00,40.00,0,-999,0,0.00
2013-9-8,69,60,50,-100,-100,-100,0,0,100,0.00,40.00,0,-999,0,0.00
2013-9-9,67,54,45,-100,-100,-100,0,0,100,0.00,40.00,0,-999,0,0.00
2013-9-11,85,77,68,-100,-100,-100,0,0,100,0.00,40.00,0,-999,0,0.00
2013-9-12,75,69,65,-100,-100,-100,0,0,100,0.00,40.00,0,-999,0,0.00
2013-9-13,69,64,57,-100,-100,-100,0,0,100,0.00,40.00,0,-999,0,0.00
2013-9-14,62,56,52,-100,-100,-100,0,0,100,0.00,40.00,0,-999,0,0.00
2013-9-15,67,56,47,-100,-100,-100,0,0,100,0.00,40.00,0,-999,0,0.00
2013-9-16,61,55,44,-100,-100,-100,0,0,100,0.00,40.00,0,-999,0,0.00
2013-9-17,60,48,40,-100,-100,-100,0,0,100,0.00,40.00,0,-999,0,0.00
2013-9-18,68,54,42,-100,-100,-100,0,0,100,0.00,40.00,0,-999,0,0.00
2013-9-19,73,59,47,-100,-100,-100,0,0,100,0.00,40.00,0,-999,0,0.00
2013-9-20,75,61,50,-100,-100,-100,0,0,100,0.00,40.00,0,-999,0,0.00
2013-9-21,69,60,54,-100,-100,-100,0,0,100,0.00,40.00,0,-999,0,0.00
2013-9-22,66,62,56,-100,-100,-100,0,0,100,0.00,40.00,0,-999,0,0.00
2013-9-23,60,51,44,-100,-100,-100,0,0,100,0.00,40.00,0,-999,0,0.00
2013-9-24,62,51,42,-100,-100,-100,0,0,100,0.00,40.00,0,-999,0,0.00
2013-9-25,67,56,46,-100,-100,-100,0,0,100,0.00,40.00,0,-999,0,0.00
2013-9-26,64,56,51,-100,-100,-100,0,0,100,0.00,40.00,0,-999,0,0.00
2013-9-27,63,56,52,-100,-100,-100,0,0,100,0.00,40.00,0,-999,0,0.00
2013-9-28,69,57,49,-100,-100,-100,0,0,100,0.00,40.00,0,-999,0,0.00
2013-9-29,65,56,48,-100,-100,-100,0,0,100,0.00,40.00,0,-999,0,0.00
2013-9-30,66,54,46,-100,-100,-100,0,0,100,0.00,40.00,0,-999,0,0.00
2013-10-1,62,51,47,-100,-100,-100,0,0,100,0.00,40.00,0,-999,0,0.00
2013-10-2,73,64,53,-100,-100,-100,0,0,100,0.00,40.00,0,-999,0,0.00
2013-10-3,70,60,52,-100,-100,-100,0,0,100,0.00,40.00,0,-999,0,0.00
2013-10-4,60,56,53,-100,-100,-100,0,0,100,0.00,40.00,0,-999,0,0.00
2013-10-5,64,59,56,-100,-100,-100,0,0,100,0.00,40.00,0,-999,0,0.00
2013-10-6,59,54,50,-100,-100,-100,0,0,100,0.00,40.00,0,-999,0,0.00
2013-10-7,69,60,52,-100,-100,-100,0,0,100,0.00,40.00,0,-999,0,0.00
2013-10-8,59,52,44,-100,-100,-100,0,0,100,0.00,40.00,0,-999,0,0.00
2013-10-9,56,47,40,-100,-100,-100,0,0,100,0.00,40.00,0,-999,0,0.00
2013-10-11,63,56,46,-100,-100,-100,0,0,100,0.00,40.00,0,-999,0,0.00
2013-10-12,54,52,48,-100,-100,-100,0,0,100,0.00,40.00,0,-999,0,0.00
2013-10-13,51,48,45,-100,-100,-100,0,0,100,0.00,40.00,0,-999,0,0.00
2013-10-14,60,52,39,-100,-100,-100,0,0,100,0.00,40.00,0,-999,0,0.00
2013-10-15,64,56,51,-100,-100,-100,0,0,100,0.00,40.00,0,-999,0,0.00
2013-10-16,58,54,50,-100,-100,-100,0,0,100,0.00,40.00,0,-999,0,0.00
2013-10-17,66,57,50,-100,-100,-100,0,0,100,0.00,40.00,0,-999,0,0.00
2013-10-18,60,55,46,-100,-100,-100,0,0,100,0.00,40.00,0,-999,0,0.00
2013-10-19,47,43,41,-100,-100,-100,0,0,100,0.00,40.00,0,-999,0,0.00
2013-10-21,59,50,38,-100,-100,-100,0,0,100,0.00,40.00,0,-999,0,0.00
2013-10-22,57,50,43,-100,-100,-100,0,0,100,0.00,40.00,0,-999,0,0.00
2013-10-23,49,44,36,-100,-100,-100,0,0,100,0.00,40.00,0,-999,0,0.00
2013-10-24,47,41,34,-100,-100,-100,0,0,100,0.00,40.00,0,-999,0,0.00
2013-10-25,40,37,34,-100,-100,-100,0,0,100,0.00,40.00,0,-999,0,0.00
2013-10-26,48,44,33,-100,-100,-100,0,0,100,0.00,40.00,0,-999,0,0.00
2013-10-27,50,44,41,-100,-100,-100,0,0,100,0.00,40.00,0,-999,0,0.00
2013-10-28,52,42,32,-100,-100,-100,0,0,100,0.00,40.00,0,-999,0,0.00
2013-10-29,44,33,27,-100,-100,-100,0,0,100,0.00,40.00,0,-999,0,0.00
2013-10-30,32,32,32,-100,-100,-100,0,0,100,0.00,40.00,0,-999,0,0.00
2013-11-1,59,55,50,-100,-100,-100,0,0,100,0.00,40.00,0,-999,0,0.00
2013-11-2,57,49,42,-100,-100,-100,0,0,100,0.00,40.00,0,-999,0,0.00
2013-11-3,46,37,28,-100,-100,-100,0,0,100,0.00,40.00,0,-999,0,0.00
2013-11-4,40,31,25,-100,-100,-100,0,0,100,0.00,40.00,0,-999,0,0.00
2013-11-5,45,35,26,-100,-100,-100,0,0,100,0.00,40.00,0,-999,0,0.00
2013-11-6,53,45,36,-100,-100,-100,0,0,100,0.00,40.00,0,-999,0,0.00
2013-11-7,56,49,37,-100,-100,-100,0,0,100,0.00,40.00,0,-999,0,0.00
2013-11-8,43,35,30,-100,-100,-100,0,0,100,0.00,40.00,0,-999,0,0.00
2013-11-9,40,34,28,-100,-100,-100,0,0,100,0.00,40.00,0,-999,0,0.00
2013-11-10,46,40,35,-100,-100,-100,0,0,100,0.00,40.00,0,-999,0,0.00
2013-11-11,45,38,34,-100,-100,-100,0,0,100,0.00,40.00,0,-999,0,0.00
2013-11-12,40,32,23,-100,-100,-100,0,0,100,0.00,40.00,0,-999,0,0.00
2013-11-13,32,25,20,-100,-100,-100,0,0,100,0.00,40.00,0,-999,0,0.00
2013-11-14,45,34,26,-100,-100,-100,0,0,100,0.00,40.00,0,-999,0,0.00
2013-11-15,51,38,29,-100,-100,-100,0,0,100,0.00,40.00,0,-999,0,0.00
2013-11-16,52,40,35,-100,-100,-100,0,0,100,0.00,40.00,0,-999,0,0.00
2013-11-22,43,42,41,-100,-100,-100,0,0,100,0.00,40.00,0,-999,0,0.00
2013-11-23,43,34,25,-100,-100,-100,0,0,100,0.00,40.00,0,-999,0,0.00
2013-11-24,25,20,15,-100,-100,-100,0,0,100,0.00,40.00,0,-999,0,0.00
2013-11-25,28,21,12,-100,-100,-100,0,0,100,0.00,40.00,0,-999,0,0.00
2013-11-26,34,30,26,-100,-100,-100,0,0,100,0.00,40.00,0,-999,0,0.00
2013-11-27,48,40,33,-100,-100,-100,0,0,100,0.00,40.00,0,-999,0,0.00
2013-11-28,33,26,18,-100,-100,-100,0,0,100,0.00,40.00,0,-999,0,0.00
2013-11-29,28,21,16,-100,-100,-100,0,0,100,0.00,40.00,0,-999,0,0.00
2013-11-30,28,21,11,-100,-100,-100,0,0,100,0.00,40.00,0,-999,0,0.00
2013-12-1,39,32,26,-100,-100,-100,0,0,100,0.00,40.00,0,-999,0,0.00
2013-12-2,37,35,33,-100,-100,-100,0,0,100,0.00,40.00,0,-999,0,0.00
2013-12-3,43,35,29,-100,-100,-100,0,0,100,0.00,40.00,0,-999,0,0.00
2013-12-4,38,32,27,-100,-100,-100,0,0,100,0.00,40.00,0,-999,0,0.00
2013-12-5,50,39,28,-100,-100,-100,0,0,100,0.00,40.00,0,-999,0,0.00
2013-12-6,50,43,34,-100,-100,-100,0,0,100,0.00,40.00,0,-999,0,0.00
2013-12-7,34,30,23,-100,-100,-100,0,0,100,0.00,40.00,0,-999,0,0.00
2013-12-8,27,24,19,-100,-100,-100,0,0,100,0.00,40.00,0,-999,0,0.00
2013-12-9,33,29,24,-100,-100,-100,0,0,100,0.00,40.00,0,-999,0,0.00
2013-12-10,32,28,19,-100,-100,-100,0,0,100,0.00,40.00,0,-999,0,0.00
2013-12-11,27,21,16,-100,-100,-100,0,0,100,0.00,40.00,0,-999,0,0.00
2013-12-12,20,16,12,-100,-100,-100,0,0,100,0.00,40.00,0,-999,0,0.00
2013-12-13,24,16,10,-100,-100,-100,0,0,100,0.00,40.00,0,-999,0,0.00
2013-12-14,14,11,6,-100,-100,-100,0,0,100,0.00,40.00,0,-999,0,0.00
2013-12-15,25,18,14,-100,-100,-100,0,0,100,0.00,40.00,0,-999,0,0.00
2013-12-16,22,19,13,-100,-100,-100,0,0,100,0.00,40.00,0,-999,0,0.00
2013-12-17,14,11,5,-100,-100,-100,0,0,100,0.00,40.00,0,-999,0,0.00
2013-12-18,27,20,12,-100,-100,-100,0,0,100,0.00,40.00,0,-999,0,0.00
2013-12-19,33,27,21,-100,-100,-100,0,0,100,0.00,40.00,0,-999,0,0.00
2013-12-20,43,35,28,-100,-100,-100,0,0,100,0.00,40.00,0,-999,0,0.00
2013-12-21,48,41,36,-100,-100,-100,0,0,100,0.00,40.00,0,-999,0,0.00
2013-12-22,53,46,42,-100,-100,-100,0,0,100,0.00,40.00,0,-999,0,0.00
2013-12-27,29,25,20,-100,-100,-100,0,0,100,0.00,40.00,0,-999,0,0.00
2013-12-28,38,29,22,-100,-100,-100,0,0,100,0.00,40.00,0,-999,0,0.00
2013-12-29,37,32,28,-100,-100,-100,0,0,100,0.00,40.00,0,-999,0,0.00
2013-12-30,34,28,14,-100,-100,-100,0,0,100,0.00,40.00,0,-999,0,0.00
2013-12-31,21,16,8,-100,-100,-100,0,0,100,0.00,40.00,0,-999,0,0.00
2014-1-1,21,16,11,-100,-100,-100,0,0,100,0.00,40.00,0,-999,0,0.00
2014-1-2,17,11,0,-100,-100,-100,0,0,100,0.00,40.00,0,-999,0,0.00